Portada
METAR-TAF:

METAR-TAF

Aeroports :

Port Sudan, Sudan

latitud: 19-26N, longitud: 037-14E, altitud: 138 m

METAR: manca

Hora: 08:17 (06:17 UTC)

Pronòstic

L'informe es va fer fa 1 hora i 17 minuts, a les 05:00 UTC
Pronòstic vàlid del 22 a les 06 UTC al 23 a les 12 UTC
Vent 6 kt del Nord-Oest
Visibilitat 10 km o més
Escasses núvols a una alçada de 3000 ft
Núvols disperses a una alçada de 13000 ft
Evolucionant progressivament
l' 22 a les 10 UTC al 22 a les 12 UTC
Vent 10 kt del Nord-Est amb ràfegues de 20 kt

TAF: HSPN 220500Z 2206/2312 32006KT 9999 FEW030 SCT130 BECMG 2210/2212 04010G20KT

Observacions i pronòstics meteorològics de més de 4000 aeroports (METAR i TAF).

Les estacions disponibles són els punts grocs i vermells al mapa.

Posi el ratolí al punt desitjat per veure el nom de l'estació.

Feu clic per veure les observacions i els pronòstics meteorològics.

Per canviar el mapa: feu clic els botons verds amb una creu de color negre per apropar; al botó verd amb un guió per allunyar la imatge; o en les fletxes verdes per a mapes adjacents.


METAR-TAF: